Historique des mesures à Cassis (13260), France
Quotidien Résumé Janvier 20, 2017 Unités:  Métrique    US   Métrique/US
« Précédent (Jour)
Suivant (Jour) »
Quotidien Hebdomadaire Mensuel Annuel Période au choix
  Maximum: Minimum: Moyenne:
Température: TemperatureC °C 7.9 °C 9.4 °C
Point de rosée: DewpointC °C -2.2 °C -0 °C
Humidité: Humidity % 47 % 49 %
Vitesse du vent: 0 km/h 0 km/h 1.4 km/h
Rafales: 0 km/h - -
Vent:- - SE
Pression: PressurehPa hPa 1021.9 hPa -
Précipitations: 0.0 mm    
Historical Graphs
 
 
Mesures pour : Janvier 20, 2017
Heure Temperature Point de rosée Pression Vent Vitesse du vent Rafales Humidité Pluie (par heure) Conditions
TemperatureC °C DewpointC °C PressurehPa hPa Calm     Humidity % HourlyPrecipMM mm SoftwareType W/m2
00:10 9.1 °C -0.6 °C 1023.6 hPa Calm     51 % 0.0 mm open2300-1.11 W/m2
01:11 8.8 °C -0.8 °C 1023.2 hPa Calm     51 % 0.0 mm open2300-1.11 W/m2
02:10 8.7 °C -0.7 °C 1023.2 hPa Calm     52 % 0.0 mm open2300-1.11 W/m2
03:11 8.6 °C -1.0 °C 1023.6 hPa Calm     51 % 0.0 mm open2300-1.11 W/m2
04:10 8.3 °C -1.6 °C 1023.6 hPa Calm     50 % 0.0 mm open2300-1.11 W/m2
05:11 8.3 °C -1.8 °C 1023.2 hPa Calm   2.9 km/h 49 % 0.0 mm open2300-1.11 W/m2
06:10 8.2 °C -1.6 °C 1023.2 hPa Calm     50 % 0.0 mm open2300-1.11 W/m2
07:12 8.1 °C -2.0 °C 1023.2 hPa Calm     49 % 0.0 mm open2300-1.11 W/m2
08:10 7.9 °C -2.2 °C 1023.2 hPa Calm     49 % 0.0 mm open2300-1.11 W/m2
09:11 8.2 °C -1.9 °C 1023.2 hPa Calm     49 % 0.0 mm open2300-1.11 W/m2
10:10 9.1 °C -1.4 °C 1023.9 hPa East 7.6 km/h 7.6 km/h 48 % 0.0 mm open2300-1.11 W/m2
11:11 10.5 °C 0.2 °C 1023.9 hPa Calm   13.2 km/h 49 % 0.0 mm open2300-1.11 W/m2
12:10 11.3 °C 0.3 °C 1023.2 hPa SE 2.9 km/h 9.8 km/h 47 % 0.0 mm open2300-1.11 W/m2
13:11 11.6 °C 0.6 °C 1023.2 hPa ESE 16.9 km/h 16.9 km/h 47 % 0.0 mm open2300-1.11 W/m2
14:11 12.0 °C 1.0 °C 1022.2 hPa ESE 3.4 km/h 3.4 km/h 47 % 0.0 mm open2300-1.11 W/m2
15:11 12.2 °C 1.2 °C 1022.2 hPa SE 5.1 km/h 5.1 km/h 47 % 0.0 mm open2300-1.11 W/m2
16:10 11.2 °C 0.9 °C 1022.2 hPa Calm   6.9 km/h 49 % 0.0 mm open2300-1.11 W/m2
17:11 10.8 °C 0.8 °C 1022.2 hPa SSE 2.3 km/h 5.6 km/h 50 % 0.0 mm open2300-1.11 W/m2
18:10 10.6 °C 1.7 °C 1022.2 hPa Calm     54 % 0.0 mm open2300-1.11 W/m2
19:11 9.7 °C 2.3 °C 1021.9 hPa Calm     60 % 0.0 mm open2300-1.11 W/m2
20:10 10.1 °C 1.9 °C 1021.9 hPa Calm   7.6 km/h 57 % 0.0 mm open2300-1.11 W/m2
21:11 10.2 °C 1.6 °C 1022.2 hPa Calm     55 % 0.0 mm open2300-1.11 W/m2
22:10 10.2 °C 1.3 °C 1021.9 hPa Calm     54 % 0.0 mm open2300-1.11 W/m2
23:11 10.3 °C 1.4 °C 1021.9 hPa Calm     54 % 0.0 mm open2300-1.11 W/m2
Observations météo à CASSIS
WU-History script by Weather Underground - 1 mb